Terminal Aerodrome Forecast
Issued by NWS

Home | Current Version | Previous Version | Graphics & Text | Print | Product List | Glossary On
Versions: 1 2 3 4 5 6 7 8 9 10 11 12 13 14 15 16 17
000
FTUS43 KABR 011400 AAA
TAFMBG
TAF AMD
KMBG 011433Z 0115/0212 29011KT P6SM SCT200
     FM011600 31024G34KT P6SM SCT200
     FM020100 29007KT P6SM SKC=

USA.gov is the U.S. government's official web portal to all federal, state and local government web resources and services.